sensor_id;sensor_type;location;lat;lon;timestamp;P1;durP1;ratioP1;P2;durP2;ratioP2
65033;SDS011;51601;51.356;12.458;2023-08-24T00:04:13;10.52;;;6.60;;
65033;SDS011;51601;51.356;12.458;2023-08-24T00:08:32;11.20;;;6.70;;
65033;SDS011;51601;51.356;12.458;2023-08-24T00:12:55;10.07;;;7.13;;
65033;SDS011;51601;51.356;12.458;2023-08-24T00:17:13;9.55;;;6.95;;
65033;SDS011;51601;51.356;12.458;2023-08-24T00:21:31;11.88;;;7.88;;
65033;SDS011;51601;51.356;12.458;2023-08-24T00:25:50;11.43;;;7.97;;
65033;SDS011;51601;51.356;12.458;2023-08-24T00:30:07;13.67;;;8.97;;
65033;SDS011;51601;51.356;12.458;2023-08-24T00:34:25;14.07;;;9.00;;
65033;SDS011;51601;51.356;12.458;2023-08-24T00:38:43;13.35;;;9.45;;
65033;SDS011;51601;51.356;12.458;2023-08-24T00:43:09;12.83;;;9.50;;
65033;SDS011;51601;51.356;12.458;2023-08-24T00:47:29;14.50;;;8.70;;
65033;SDS011;51601;51.356;12.458;2023-08-24T00:51:47;10.70;;;7.65;;
65033;SDS011;51601;51.356;12.458;2023-08-24T00:56:05;10.83;;;7.33;;
65033;SDS011;51601;51.356;12.458;2023-08-24T01:00:24;11.45;;;7.85;;
65033;SDS011;51601;51.356;12.458;2023-08-24T01:04:41;11.75;;;8.50;;
65033;SDS011;51601;51.356;12.458;2023-08-24T01:08:59;10.57;;;7.18;;
65033;SDS011;51601;51.356;12.458;2023-08-24T01:13:18;10.83;;;6.93;;
65033;SDS011;51601;51.356;12.458;2023-08-24T01:17:43;9.40;;;7.18;;
65033;SDS011;51601;51.356;12.458;2023-08-24T01:22:02;12.57;;;7.32;;
65033;SDS011;51601;51.356;12.458;2023-08-24T01:26:28;11.43;;;8.40;;
65033;SDS011;51601;51.356;12.458;2023-08-24T01:30:48;11.68;;;7.82;;
65033;SDS011;51601;51.356;12.458;2023-08-24T01:35:10;11.15;;;7.72;;
65033;SDS011;51601;51.356;12.458;2023-08-24T01:39:31;11.03;;;7.43;;
65033;SDS011;51601;51.356;12.458;2023-08-24T01:44:08;12.02;;;8.60;;
65033;SDS011;51601;51.356;12.458;2023-08-24T01:48:31;11.95;;;8.05;;
65033;SDS011;51601;51.356;12.458;2023-08-24T01:52:49;13.85;;;8.52;;
65033;SDS011;51601;51.356;12.458;2023-08-24T01:57:07;12.83;;;7.80;;
65033;SDS011;51601;51.356;12.458;2023-08-24T02:01:26;11.48;;;8.43;;
65033;SDS011;51601;51.356;12.458;2023-08-24T02:05:46;10.35;;;7.72;;
65033;SDS011;51601;51.356;12.458;2023-08-24T02:10:04;13.17;;;8.00;;
65033;SDS011;51601;51.356;12.458;2023-08-24T02:14:22;14.02;;;9.68;;
65033;SDS011;51601;51.356;12.458;2023-08-24T02:18:41;13.43;;;7.88;;
65033;SDS011;51601;51.356;12.458;2023-08-24T02:22:58;13.90;;;9.20;;
65033;SDS011;51601;51.356;12.458;2023-08-24T02:27:16;12.05;;;8.27;;
65033;SDS011;51601;51.356;12.458;2023-08-24T02:31:37;12.38;;;8.15;;
65033;SDS011;51601;51.356;12.458;2023-08-24T02:35:57;14.27;;;9.68;;
65033;SDS011;51601;51.356;12.458;2023-08-24T02:40:13;13.20;;;7.70;;
65033;SDS011;51601;51.356;12.458;2023-08-24T02:44:32;12.48;;;8.05;;
65033;SDS011;51601;51.356;12.458;2023-08-24T02:48:53;14.23;;;8.35;;
65033;SDS011;51601;51.356;12.458;2023-08-24T02:53:12;14.10;;;8.67;;
65033;SDS011;51601;51.356;12.458;2023-08-24T02:57:29;12.63;;;8.30;;
65033;SDS011;51601;51.356;12.458;2023-08-24T03:01:47;12.70;;;9.30;;
65033;SDS011;51601;51.356;12.458;2023-08-24T03:06:08;12.70;;;9.40;;
65033;SDS011;51601;51.356;12.458;2023-08-24T03:10:27;14.77;;;9.68;;
65033;SDS011;51601;51.356;12.458;2023-08-24T03:14:44;14.55;;;10.68;;
65033;SDS011;51601;51.356;12.458;2023-08-24T03:19:02;12.85;;;8.40;;
65033;SDS011;51601;51.356;12.458;2023-08-24T03:23:20;12.97;;;8.93;;
65033;SDS011;51601;51.356;12.458;2023-08-24T03:27:40;12.50;;;9.50;;
65033;SDS011;51601;51.356;12.458;2023-08-24T03:31:56;15.75;;;10.82;;
65033;SDS011;51601;51.356;12.458;2023-08-24T03:36:14;16.93;;;11.47;;
65033;SDS011;51601;51.356;12.458;2023-08-24T03:40:32;15.32;;;11.55;;
65033;SDS011;51601;51.356;12.458;2023-08-24T03:44:52;14.77;;;11.15;;
65033;SDS011;51601;51.356;12.458;2023-08-24T03:49:08;16.90;;;10.73;;
65033;SDS011;51601;51.356;12.458;2023-08-24T03:53:26;17.23;;;11.88;;
65033;SDS011;51601;51.356;12.458;2023-08-24T03:57:45;13.77;;;10.15;;
65033;SDS011;51601;51.356;12.458;2023-08-24T04:02:04;17.25;;;11.00;;
65033;SDS011;51601;51.356;12.458;2023-08-24T04:06:24;14.97;;;10.13;;
65033;SDS011;51601;51.356;12.458;2023-08-24T04:10:42;12.95;;;9.55;;
65033;SDS011;51601;51.356;12.458;2023-08-24T04:15:00;14.05;;;11.30;;
65033;SDS011;51601;51.356;12.458;2023-08-24T04:19:19;15.10;;;11.23;;
65033;SDS011;51601;51.356;12.458;2023-08-24T04:23:36;15.80;;;11.27;;
65033;SDS011;51601;51.356;12.458;2023-08-24T04:27:54;14.15;;;11.60;;
65033;SDS011;51601;51.356;12.458;2023-08-24T04:32:12;15.33;;;10.90;;
65033;SDS011;51601;51.356;12.458;2023-08-24T04:36:31;14.13;;;10.02;;
65033;SDS011;51601;51.356;12.458;2023-08-24T04:40:49;14.48;;;9.23;;
65033;SDS011;51601;51.356;12.458;2023-08-24T04:45:09;12.95;;;8.82;;
65033;SDS011;51601;51.356;12.458;2023-08-24T04:49:29;12.93;;;8.47;;
65033;SDS011;51601;51.356;12.458;2023-08-24T04:53:50;12.75;;;8.73;;
65033;SDS011;51601;51.356;12.458;2023-08-24T04:58:07;11.73;;;8.25;;
65033;SDS011;51601;51.356;12.458;2023-08-24T05:02:25;13.90;;;8.27;;
65033;SDS011;51601;51.356;12.458;2023-08-24T05:06:43;15.63;;;8.93;;
65033;SDS011;51601;51.356;12.458;2023-08-24T05:11:07;16.65;;;9.25;;
65033;SDS011;51601;51.356;12.458;2023-08-24T05:15:28;13.60;;;8.27;;
65033;SDS011;51601;51.356;12.458;2023-08-24T05:19:46;12.38;;;8.23;;
65033;SDS011;51601;51.356;12.458;2023-08-24T05:24:07;11.30;;;7.93;;
65033;SDS011;51601;51.356;12.458;2023-08-24T05:28:27;11.23;;;7.80;;
65033;SDS011;51601;51.356;12.458;2023-08-24T05:32:46;12.33;;;7.70;;
65033;SDS011;51601;51.356;12.458;2023-08-24T05:37:04;16.52;;;7.95;;
65033;SDS011;51601;51.356;12.458;2023-08-24T05:41:23;12.52;;;7.93;;
65033;SDS011;51601;51.356;12.458;2023-08-24T05:45:42;12.20;;;7.60;;
65033;SDS011;51601;51.356;12.458;2023-08-24T05:50:02;13.32;;;7.53;;
65033;SDS011;51601;51.356;12.458;2023-08-24T05:54:20;16.27;;;8.38;;
65033;SDS011;51601;51.356;12.458;2023-08-24T05:58:38;9.50;;;7.40;;
65033;SDS011;51601;51.356;12.458;2023-08-24T06:02:57;9.93;;;6.57;;
65033;SDS011;51601;51.356;12.458;2023-08-24T06:07:14;11.00;;;7.13;;
65033;SDS011;51601;51.356;12.458;2023-08-24T06:11:32;13.85;;;6.63;;
65033;SDS011;51601;51.356;12.458;2023-08-24T06:15:50;14.40;;;7.10;;
65033;SDS011;51601;51.356;12.458;2023-08-24T06:20:10;11.50;;;6.93;;
65033;SDS011;51601;51.356;12.458;2023-08-24T06:24:29;11.07;;;6.65;;
65033;SDS011;51601;51.356;12.458;2023-08-24T06:28:47;14.10;;;6.30;;
65033;SDS011;51601;51.356;12.458;2023-08-24T06:33:06;10.18;;;5.85;;
65033;SDS011;51601;51.356;12.458;2023-08-24T06:37:25;10.35;;;6.38;;
65033;SDS011;51601;51.356;12.458;2023-08-24T06:41:41;10.87;;;6.20;;
65033;SDS011;51601;51.356;12.458;2023-08-24T06:45:59;10.68;;;6.00;;
65033;SDS011;51601;51.356;12.458;2023-08-24T06:50:18;9.18;;;5.57;;
65033;SDS011;51601;51.356;12.458;2023-08-24T06:54:37;9.02;;;5.70;;
65033;SDS011;51601;51.356;12.458;2023-08-24T06:58:57;9.10;;;5.17;;
65033;SDS011;51601;51.356;12.458;2023-08-24T07:03:15;8.27;;;5.07;;
65033;SDS011;51601;51.356;12.458;2023-08-24T07:07:33;7.80;;;4.95;;
65033;SDS011;51601;51.356;12.458;2023-08-24T07:11:52;9.20;;;5.30;;
65033;SDS011;51601;51.356;12.458;2023-08-24T07:16:09;7.82;;;4.60;;
65033;SDS011;51601;51.356;12.458;2023-08-24T07:20:27;7.97;;;4.97;;
65033;SDS011;51601;51.356;12.458;2023-08-24T07:24:45;10.87;;;4.90;;
65033;SDS011;51601;51.356;12.458;2023-08-24T07:29:14;7.82;;;5.22;;
65033;SDS011;51601;51.356;12.458;2023-08-24T07:33:34;8.60;;;4.30;;
65033;SDS011;51601;51.356;12.458;2023-08-24T07:37:51;8.50;;;5.75;;
65033;SDS011;51601;51.356;12.458;2023-08-24T07:42:10;9.27;;;4.30;;
65033;SDS011;51601;51.356;12.458;2023-08-24T07:46:29;8.70;;;4.50;;
65033;SDS011;51601;51.356;12.458;2023-08-24T07:50:49;7.05;;;3.50;;
65033;SDS011;51601;51.356;12.458;2023-08-24T07:55:07;7.70;;;3.33;;
65033;SDS011;51601;51.356;12.458;2023-08-24T07:59:25;9.00;;;3.20;;
65033;SDS011;51601;51.356;12.458;2023-08-24T08:03:44;8.50;;;3.10;;
65033;SDS011;51601;51.356;12.458;2023-08-24T08:08:01;9.43;;;3.10;;
65033;SDS011;51601;51.356;12.458;2023-08-24T08:12:19;6.75;;;3.10;;
65033;SDS011;51601;51.356;12.458;2023-08-24T08:16:37;6.68;;;3.28;;
65033;SDS011;51601;51.356;12.458;2023-08-24T08:20:56;7.43;;;3.30;;
65033;SDS011;51601;51.356;12.458;2023-08-24T08:25:13;6.97;;;3.03;;
65033;SDS011;51601;51.356;12.458;2023-08-24T08:29:34;7.75;;;3.03;;
65033;SDS011;51601;51.356;12.458;2023-08-24T08:33:52;7.75;;;3.25;;
65033;SDS011;51601;51.356;12.458;2023-08-24T08:38:15;7.87;;;3.30;;
65033;SDS011;51601;51.356;12.458;2023-08-24T08:42:32;7.63;;;3.10;;
65033;SDS011;51601;51.356;12.458;2023-08-24T08:46:53;6.82;;;3.10;;
65033;SDS011;51601;51.356;12.458;2023-08-24T08:51:11;10.67;;;3.37;;
65033;SDS011;51601;51.356;12.458;2023-08-24T08:55:36;7.90;;;3.38;;
65033;SDS011;51601;51.356;12.458;2023-08-24T08:59:56;8.73;;;4.25;;
65033;SDS011;51601;51.356;12.458;2023-08-24T09:04:14;7.43;;;3.40;;
65033;SDS011;51601;51.356;12.458;2023-08-24T09:08:32;7.60;;;3.30;;
65033;SDS011;51601;51.356;12.458;2023-08-24T09:12:51;6.50;;;3.08;;
65033;SDS011;51601;51.356;12.458;2023-08-24T09:17:08;7.10;;;3.10;;
65033;SDS011;51601;51.356;12.458;2023-08-24T09:21:26;7.27;;;3.53;;
65033;SDS011;51601;51.356;12.458;2023-08-24T09:25:45;7.90;;;3.30;;
65033;SDS011;51601;51.356;12.458;2023-08-24T09:30:04;8.13;;;3.90;;
65033;SDS011;51601;51.356;12.458;2023-08-24T09:34:24;10.20;;;3.70;;
65033;SDS011;51601;51.356;12.458;2023-08-24T09:38:47;8.50;;;3.35;;
65033;SDS011;51601;51.356;12.458;2023-08-24T09:43:06;6.97;;;3.67;;
65033;SDS011;51601;51.356;12.458;2023-08-24T09:47:31;8.88;;;3.40;;
65033;SDS011;51601;51.356;12.458;2023-08-24T09:51:51;8.20;;;3.70;;
65033;SDS011;51601;51.356;12.458;2023-08-24T09:56:12;6.78;;;3.42;;
65033;SDS011;51601;51.356;12.458;2023-08-24T10:00:33;7.75;;;3.33;;
65033;SDS011;51601;51.356;12.458;2023-08-24T10:04:56;6.17;;;3.57;;
65033;SDS011;51601;51.356;12.458;2023-08-24T10:09:18;9.52;;;3.47;;
65033;SDS011;51601;51.356;12.458;2023-08-24T10:13:41;6.65;;;3.35;;
65033;SDS011;51601;51.356;12.458;2023-08-24T10:18:13;7.00;;;3.40;;
65033;SDS011;51601;51.356;12.458;2023-08-24T10:22:36;6.50;;;2.85;;
65033;SDS011;51601;51.356;12.458;2023-08-24T10:26:55;6.53;;;3.25;;
65033;SDS011;51601;51.356;12.458;2023-08-24T10:31:13;8.93;;;3.42;;
65033;SDS011;51601;51.356;12.458;2023-08-24T10:35:32;9.70;;;3.40;;
65033;SDS011;51601;51.356;12.458;2023-08-24T10:39:51;7.18;;;3.65;;
65033;SDS011;51601;51.356;12.458;2023-08-24T10:44:11;6.63;;;3.60;;
65033;SDS011;51601;51.356;12.458;2023-08-24T10:53:20;6.75;;;3.60;;
65033;SDS011;51601;51.356;12.458;2023-08-24T10:57:56;7.25;;;3.35;;
65033;SDS011;51601;51.356;12.458;2023-08-24T11:02:18;10.00;;;4.10;;
65033;SDS011;51601;51.356;12.458;2023-08-24T11:06:50;8.80;;;4.18;;
65033;SDS011;51601;51.356;12.458;2023-08-24T11:11:17;7.10;;;3.80;;
65033;SDS011;51601;51.356;12.458;2023-08-24T11:15:40;7.68;;;3.95;;
65033;SDS011;51601;51.356;12.458;2023-08-24T11:20:01;8.17;;;3.63;;
65033;SDS011;51601;51.356;12.458;2023-08-24T11:24:22;7.65;;;3.80;;
65033;SDS011;51601;51.356;12.458;2023-08-24T11:28:40;8.20;;;3.40;;
65033;SDS011;51601;51.356;12.458;2023-08-24T11:33:00;9.17;;;4.00;;
65033;SDS011;51601;51.356;12.458;2023-08-24T11:37:20;9.43;;;4.43;;
65033;SDS011;51601;51.356;12.458;2023-08-24T11:41:38;7.25;;;3.80;;
65033;SDS011;51601;51.356;12.458;2023-08-24T11:45:56;9.23;;;4.10;;
65033;SDS011;51601;51.356;12.458;2023-08-24T11:50:15;10.90;;;4.30;;
65033;SDS011;51601;51.356;12.458;2023-08-24T11:54:35;8.40;;;4.28;;
65033;SDS011;51601;51.356;12.458;2023-08-24T11:58:53;8.43;;;4.22;;
65033;SDS011;51601;51.356;12.458;2023-08-24T12:03:11;7.63;;;4.10;;
65033;SDS011;51601;51.356;12.458;2023-08-24T12:07:30;8.75;;;4.72;;
65033;SDS011;51601;51.356;12.458;2023-08-24T12:11:47;8.48;;;4.10;;
65033;SDS011;51601;51.356;12.458;2023-08-24T12:16:05;7.83;;;4.23;;
65033;SDS011;51601;51.356;12.458;2023-08-24T12:20:23;7.97;;;4.20;;
65033;SDS011;51601;51.356;12.458;2023-08-24T12:24:44;7.90;;;4.13;;
65033;SDS011;51601;51.356;12.458;2023-08-24T12:29:03;8.37;;;4.00;;
65033;SDS011;51601;51.356;12.458;2023-08-24T12:33:24;8.00;;;4.13;;
65033;SDS011;51601;51.356;12.458;2023-08-24T12:37:42;6.70;;;4.00;;
65033;SDS011;51601;51.356;12.458;2023-08-24T12:42:01;8.75;;;4.10;;
65033;SDS011;51601;51.356;12.458;2023-08-24T12:46:18;8.63;;;4.10;;
65033;SDS011;51601;51.356;12.458;2023-08-24T12:50:37;7.75;;;4.05;;
65033;SDS011;51601;51.356;12.458;2023-08-24T12:54:57;9.50;;;4.32;;
65033;SDS011;51601;51.356;12.458;2023-08-24T12:59:16;8.73;;;4.43;;
65033;SDS011;51601;51.356;12.458;2023-08-24T13:03:33;10.05;;;4.20;;
65033;SDS011;51601;51.356;12.458;2023-08-24T13:07:51;10.85;;;4.60;;
65033;SDS011;51601;51.356;12.458;2023-08-24T13:12:09;7.13;;;4.27;;
65033;SDS011;51601;51.356;12.458;2023-08-24T13:16:29;8.82;;;4.03;;
65033;SDS011;51601;51.356;12.458;2023-08-24T13:20:48;8.75;;;4.60;;
65033;SDS011;51601;51.356;12.458;2023-08-24T13:25:07;7.07;;;4.50;;
65033;SDS011;51601;51.356;12.458;2023-08-24T13:29:24;9.13;;;4.60;;
65033;SDS011;51601;51.356;12.458;2023-08-24T13:33:44;10.10;;;4.95;;
65033;SDS011;51601;51.356;12.458;2023-08-24T13:38:04;10.38;;;4.97;;
65033;SDS011;51601;51.356;12.458;2023-08-24T13:42:22;10.30;;;4.83;;
65033;SDS011;51601;51.356;12.458;2023-08-24T13:46:40;7.93;;;4.47;;
65033;SDS011;51601;51.356;12.458;2023-08-24T13:50:59;9.52;;;4.38;;
65033;SDS011;51601;51.356;12.458;2023-08-24T13:55:19;8.53;;;3.90;;
65033;SDS011;51601;51.356;12.458;2023-08-24T13:59:37;9.35;;;4.13;;
65033;SDS011;51601;51.356;12.458;2023-08-24T14:03:55;9.25;;;4.47;;
65033;SDS011;51601;51.356;12.458;2023-08-24T14:08:14;7.57;;;3.80;;
65033;SDS011;51601;51.356;12.458;2023-08-24T14:12:31;8.83;;;4.00;;
65033;SDS011;51601;51.356;12.458;2023-08-24T14:16:53;6.53;;;4.03;;
65033;SDS011;51601;51.356;12.458;2023-08-24T14:21:13;8.65;;;4.28;;
65033;SDS011;51601;51.356;12.458;2023-08-24T14:25:42;7.73;;;4.30;;
65033;SDS011;51601;51.356;12.458;2023-08-24T14:29:59;8.77;;;4.50;;
65033;SDS011;51601;51.356;12.458;2023-08-24T14:34:17;7.05;;;4.18;;
65033;SDS011;51601;51.356;12.458;2023-08-24T14:38:35;8.60;;;4.10;;
65033;SDS011;51601;51.356;12.458;2023-08-24T14:42:54;8.55;;;4.22;;
65033;SDS011;51601;51.356;12.458;2023-08-24T14:47:14;8.95;;;4.30;;
65033;SDS011;51601;51.356;12.458;2023-08-24T14:51:35;9.20;;;4.22;;
65033;SDS011;51601;51.356;12.458;2023-08-24T14:55:53;7.33;;;3.90;;
65033;SDS011;51601;51.356;12.458;2023-08-24T15:00:13;8.50;;;4.13;;
65033;SDS011;51601;51.356;12.458;2023-08-24T15:04:32;9.05;;;3.95;;
65033;SDS011;51601;51.356;12.458;2023-08-24T15:08:50;8.67;;;3.80;;
65033;SDS011;51601;51.356;12.458;2023-08-24T15:13:09;7.57;;;4.20;;
65033;SDS011;51601;51.356;12.458;2023-08-24T15:17:29;7.10;;;3.90;;
65033;SDS011;51601;51.356;12.458;2023-08-24T15:21:51;7.30;;;3.70;;
65033;SDS011;51601;51.356;12.458;2023-08-24T15:26:09;7.47;;;3.90;;
65033;SDS011;51601;51.356;12.458;2023-08-24T15:30:27;7.80;;;3.75;;
65033;SDS011;51601;51.356;12.458;2023-08-24T15:34:46;6.60;;;3.60;;
65033;SDS011;51601;51.356;12.458;2023-08-24T15:39:06;8.63;;;3.57;;
65033;SDS011;51601;51.356;12.458;2023-08-24T15:43:24;7.45;;;3.88;;
65033;SDS011;51601;51.356;12.458;2023-08-24T15:47:42;7.05;;;3.58;;
65033;SDS011;51601;51.356;12.458;2023-08-24T15:52:03;8.17;;;3.77;;
65033;SDS011;51601;51.356;12.458;2023-08-24T15:56:22;8.13;;;3.65;;
65033;SDS011;51601;51.356;12.458;2023-08-24T16:00:39;7.45;;;3.42;;
65033;SDS011;51601;51.356;12.458;2023-08-24T16:04:57;7.93;;;3.40;;
65033;SDS011;51601;51.356;12.458;2023-08-24T16:09:17;8.07;;;3.42;;
65033;SDS011;51601;51.356;12.458;2023-08-24T16:13:37;8.75;;;3.80;;
65033;SDS011;51601;51.356;12.458;2023-08-24T16:17:55;7.65;;;3.80;;
65033;SDS011;51601;51.356;12.458;2023-08-24T16:22:13;6.87;;;3.40;;
65033;SDS011;51601;51.356;12.458;2023-08-24T16:26:32;10.98;;;4.10;;
65033;SDS011;51601;51.356;12.458;2023-08-24T16:30:52;7.45;;;3.42;;
65033;SDS011;51601;51.356;12.458;2023-08-24T16:35:10;6.50;;;3.50;;
65033;SDS011;51601;51.356;12.458;2023-08-24T16:39:29;6.28;;;3.53;;
65033;SDS011;51601;51.356;12.458;2023-08-24T16:43:47;8.43;;;3.85;;
65033;SDS011;51601;51.356;12.458;2023-08-24T16:48:07;8.03;;;3.67;;
65033;SDS011;51601;51.356;12.458;2023-08-24T16:52:25;8.02;;;3.70;;
65033;SDS011;51601;51.356;12.458;2023-08-24T16:56:44;9.48;;;4.00;;
65033;SDS011;51601;51.356;12.458;2023-08-24T17:01:07;8.75;;;3.92;;
65033;SDS011;51601;51.356;12.458;2023-08-24T17:05:26;8.80;;;3.50;;
65033;SDS011;51601;51.356;12.458;2023-08-24T17:09:44;7.22;;;3.90;;
65033;SDS011;51601;51.356;12.458;2023-08-24T17:14:02;9.13;;;4.00;;
65033;SDS011;51601;51.356;12.458;2023-08-24T17:18:21;7.30;;;3.83;;
65033;SDS011;51601;51.356;12.458;2023-08-24T17:22:41;8.68;;;3.60;;
65033;SDS011;51601;51.356;12.458;2023-08-24T17:26:59;7.50;;;3.72;;
65033;SDS011;51601;51.356;12.458;2023-08-24T17:31:17;10.30;;;4.27;;
65033;SDS011;51601;51.356;12.458;2023-08-24T17:35:36;6.90;;;3.78;;
65033;SDS011;51601;51.356;12.458;2023-08-24T17:39:53;10.25;;;4.35;;
65033;SDS011;51601;51.356;12.458;2023-08-24T17:44:11;9.50;;;4.80;;
65033;SDS011;51601;51.356;12.458;2023-08-24T17:48:29;8.73;;;3.80;;
65033;SDS011;51601;51.356;12.458;2023-08-24T17:52:49;7.55;;;3.78;;
65033;SDS011;51601;51.356;12.458;2023-08-24T17:57:11;10.90;;;3.80;;
65033;SDS011;51601;51.356;12.458;2023-08-24T18:01:29;8.50;;;4.23;;
65033;SDS011;51601;51.356;12.458;2023-08-24T18:05:47;8.02;;;4.20;;
65033;SDS011;51601;51.356;12.458;2023-08-24T18:10:10;6.53;;;3.72;;
65033;SDS011;51601;51.356;12.458;2023-08-24T18:14:30;8.97;;;4.40;;
65033;SDS011;51601;51.356;12.458;2023-08-24T18:18:48;8.93;;;4.07;;
65033;SDS011;51601;51.356;12.458;2023-08-24T18:23:06;8.25;;;4.20;;
65033;SDS011;51601;51.356;12.458;2023-08-24T18:27:25;7.93;;;3.88;;
65033;SDS011;51601;51.356;12.458;2023-08-24T18:31:42;6.90;;;3.50;;
65033;SDS011;51601;51.356;12.458;2023-08-24T18:36:00;8.70;;;3.90;;
65033;SDS011;51601;51.356;12.458;2023-08-24T18:40:18;7.95;;;3.88;;
65033;SDS011;51601;51.356;12.458;2023-08-24T18:44:38;7.70;;;3.80;;
65033;SDS011;51601;51.356;12.458;2023-08-24T18:48:57;8.35;;;4.28;;
65033;SDS011;51601;51.356;12.458;2023-08-24T18:53:15;10.13;;;4.30;;
65033;SDS011;51601;51.356;12.458;2023-08-24T18:57:33;8.07;;;4.23;;
65033;SDS011;51601;51.356;12.458;2023-08-24T19:01:53;10.45;;;4.82;;
65033;SDS011;51601;51.356;12.458;2023-08-24T19:06:13;8.55;;;4.40;;
65033;SDS011;51601;51.356;12.458;2023-08-24T19:10:44;9.52;;;4.22;;
65033;SDS011;51601;51.356;12.458;2023-08-24T19:15:01;11.17;;;4.23;;
65033;SDS011;51601;51.356;12.458;2023-08-24T19:19:20;9.02;;;4.45;;
65033;SDS011;51601;51.356;12.458;2023-08-24T19:23:37;7.15;;;4.30;;
65033;SDS011;51601;51.356;12.458;2023-08-24T19:27:58;9.20;;;4.87;;
65033;SDS011;51601;51.356;12.458;2023-08-24T19:32:16;8.07;;;4.30;;
65033;SDS011;51601;51.356;12.458;2023-08-24T19:36:36;8.75;;;4.40;;
65033;SDS011;51601;51.356;12.458;2023-08-24T19:40:56;7.60;;;4.27;;
65033;SDS011;51601;51.356;12.458;2023-08-24T19:45:20;11.70;;;4.45;;
65033;SDS011;51601;51.356;12.458;2023-08-24T19:49:38;9.32;;;4.43;;
65033;SDS011;51601;51.356;12.458;2023-08-24T19:53:57;9.50;;;4.15;;
65033;SDS011;51601;51.356;12.458;2023-08-24T19:58:21;8.57;;;4.53;;
65033;SDS011;51601;51.356;12.458;2023-08-24T20:02:38;8.05;;;4.38;;
65033;SDS011;51601;51.356;12.458;2023-08-24T20:06:56;8.38;;;4.43;;
65033;SDS011;51601;51.356;12.458;2023-08-24T20:11:16;7.57;;;4.27;;
65033;SDS011;51601;51.356;12.458;2023-08-24T20:15:35;8.23;;;4.70;;
65033;SDS011;51601;51.356;12.458;2023-08-24T20:19:53;8.75;;;4.95;;
65033;SDS011;51601;51.356;12.458;2023-08-24T20:24:11;8.43;;;4.43;;
65033;SDS011;51601;51.356;12.458;2023-08-24T20:28:31;9.50;;;4.68;;
65033;SDS011;51601;51.356;12.458;2023-08-24T20:32:50;10.75;;;4.68;;
65033;SDS011;51601;51.356;12.458;2023-08-24T20:37:09;8.02;;;4.65;;
65033;SDS011;51601;51.356;12.458;2023-08-24T20:41:27;9.40;;;4.83;;
65033;SDS011;51601;51.356;12.458;2023-08-24T20:45:46;10.68;;;5.20;;
65033;SDS011;51601;51.356;12.458;2023-08-24T20:50:06;9.93;;;4.90;;
65033;SDS011;51601;51.356;12.458;2023-08-24T20:54:27;9.43;;;5.17;;
65033;SDS011;51601;51.356;12.458;2023-08-24T20:58:54;11.32;;;5.18;;
65033;SDS011;51601;51.356;12.458;2023-08-24T21:03:17;11.07;;;5.43;;
65033;SDS011;51601;51.356;12.458;2023-08-24T21:07:36;11.13;;;5.17;;
65033;SDS011;51601;51.356;12.458;2023-08-24T21:11:54;9.98;;;4.97;;
65033;SDS011;51601;51.356;12.458;2023-08-24T21:16:13;9.15;;;5.05;;
65033;SDS011;51601;51.356;12.458;2023-08-24T21:20:32;11.68;;;5.05;;
65033;SDS011;51601;51.356;12.458;2023-08-24T21:24:52;9.97;;;4.87;;
65033;SDS011;51601;51.356;12.458;2023-08-24T21:29:10;11.13;;;5.25;;
65033;SDS011;51601;51.356;12.458;2023-08-24T21:33:28;9.52;;;5.20;;
65033;SDS011;51601;51.356;12.458;2023-08-24T21:37:47;9.40;;;4.97;;
65033;SDS011;51601;51.356;12.458;2023-08-24T21:42:07;8.77;;;4.93;;
65033;SDS011;51601;51.356;12.458;2023-08-24T21:46:25;10.02;;;5.35;;
65033;SDS011;51601;51.356;12.458;2023-08-24T21:50:43;12.00;;;5.57;;
65033;SDS011;51601;51.356;12.458;2023-08-24T21:55:03;9.68;;;5.28;;
65033;SDS011;51601;51.356;12.458;2023-08-24T21:59:22;11.48;;;5.32;;
65033;SDS011;51601;51.356;12.458;2023-08-24T22:03:40;9.48;;;5.50;;
65033;SDS011;51601;51.356;12.458;2023-08-24T22:07:59;13.80;;;5.33;;
65033;SDS011;51601;51.356;12.458;2023-08-24T22:12:21;10.20;;;5.65;;
65033;SDS011;51601;51.356;12.458;2023-08-24T22:16:38;9.43;;;5.63;;
65033;SDS011;51601;51.356;12.458;2023-08-24T22:20:56;10.07;;;5.73;;
65033;SDS011;51601;51.356;12.458;2023-08-24T22:25:14;10.25;;;5.78;;
65033;SDS011;51601;51.356;12.458;2023-08-24T22:29:33;10.80;;;5.55;;
65033;SDS011;51601;51.356;12.458;2023-08-24T22:33:50;11.17;;;5.53;;
65033;SDS011;51601;51.356;12.458;2023-08-24T22:38:08;13.15;;;6.07;;
65033;SDS011;51601;51.356;12.458;2023-08-24T22:42:26;9.80;;;6.10;;
65033;SDS011;51601;51.356;12.458;2023-08-24T22:46:45;9.00;;;5.82;;
65033;SDS011;51601;51.356;12.458;2023-08-24T22:51:02;12.77;;;5.90;;
65033;SDS011;51601;51.356;12.458;2023-08-24T22:55:23;11.38;;;6.50;;
65033;SDS011;51601;51.356;12.458;2023-08-24T22:59:41;8.95;;;5.55;;
65033;SDS011;51601;51.356;12.458;2023-08-24T23:04:01;10.53;;;5.40;;
65033;SDS011;51601;51.356;12.458;2023-08-24T23:08:20;9.85;;;5.80;;
65033;SDS011;51601;51.356;12.458;2023-08-24T23:12:42;10.60;;;6.35;;
65033;SDS011;51601;51.356;12.458;2023-08-24T23:17:00;8.03;;;5.57;;
65033;SDS011;51601;51.356;12.458;2023-08-24T23:21:19;9.65;;;5.50;;
65033;SDS011;51601;51.356;12.458;2023-08-24T23:25:39;11.35;;;5.28;;
65033;SDS011;51601;51.356;12.458;2023-08-24T23:29:57;11.40;;;5.65;;
65033;SDS011;51601;51.356;12.458;2023-08-24T23:34:18;10.40;;;6.30;;
65033;SDS011;51601;51.356;12.458;2023-08-24T23:38:37;12.88;;;6.45;;
65033;SDS011;51601;51.356;12.458;2023-08-24T23:42:57;9.45;;;6.20;;
65033;SDS011;51601;51.356;12.458;2023-08-24T23:47:15;8.97;;;6.10;;
65033;SDS011;51601;51.356;12.458;2023-08-24T23:51:33;9.65;;;6.30;;
65033;SDS011;51601;51.356;12.458;2023-08-24T23:55:53;10.77;;;6.88;;
